sensor_id;sensor_type;location;lat;lon;timestamp;P1;durP1;ratioP1;P2;durP2;ratioP2
33900;SDS011;20193;49.810;6.418;2022-08-11T07:20:45;6.43;;;4.03;;
33900;SDS011;20193;49.810;6.418;2022-08-11T07:23:32;6.25;;;4.50;;
33900;SDS011;20193;49.810;6.418;2022-08-11T07:26:19;4.82;;;3.55;;
33900;SDS011;20193;49.810;6.418;2022-08-11T07:29:08;5.70;;;3.83;;
33900;SDS011;20193;49.810;6.418;2022-08-11T07:31:42;4.85;;;3.70;;
33900;SDS011;20193;49.810;6.418;2022-08-11T07:37:08;15.88;;;6.55;;
33900;SDS011;20193;49.810;6.418;2022-08-11T07:39:42;12.95;;;5.13;;
33900;SDS011;20193;49.810;6.418;2022-08-11T07:42:10;5.38;;;4.97;;
33900;SDS011;20193;49.810;6.418;2022-08-11T07:44:41;4.30;;;3.90;;
33900;SDS011;20193;49.810;6.418;2022-08-11T07:47:27;4.30;;;3.75;;
33900;SDS011;20193;49.810;6.418;2022-08-11T07:50:12;4.85;;;4.35;;
33900;SDS011;20193;49.810;6.418;2022-08-11T07:52:57;4.65;;;4.35;;
33900;SDS011;20193;49.810;6.418;2022-08-11T07:55:24;5.03;;;4.53;;
33900;SDS011;20193;49.810;6.418;2022-08-11T07:57:52;4.82;;;4.45;;
33900;SDS011;20193;49.810;6.418;2022-08-11T08:00:38;5.13;;;4.63;;
33900;SDS011;20193;49.810;6.418;2022-08-11T08:03:27;4.43;;;4.13;;
33900;SDS011;20193;49.810;6.418;2022-08-11T08:06:14;7.55;;;4.38;;
33900;SDS011;20193;49.810;6.418;2022-08-11T08:08:59;5.35;;;4.43;;
33900;SDS011;20193;49.810;6.418;2022-08-11T08:11:45;5.05;;;4.43;;
33900;SDS011;20193;49.810;6.418;2022-08-11T08:14:30;4.55;;;4.05;;
33900;SDS011;20193;49.810;6.418;2022-08-11T08:17:15;5.85;;;3.95;;
33900;SDS011;20193;49.810;6.418;2022-08-11T08:19:59;6.45;;;4.88;;
33900;SDS011;20193;49.810;6.418;2022-08-11T08:22:27;4.30;;;4.00;;
33900;SDS011;20193;49.810;6.418;2022-08-11T08:24:54;4.80;;;4.40;;
33900;SDS011;20193;49.810;6.418;2022-08-11T08:27:20;4.60;;;4.30;;
33900;SDS011;20193;49.810;6.418;2022-08-11T08:29:47;4.57;;;4.25;;
33900;SDS011;20193;49.810;6.418;2022-08-11T08:32:32;6.35;;;4.30;;
33900;SDS011;20193;49.810;6.418;2022-08-11T08:35:02;5.03;;;4.63;;
33900;SDS011;20193;49.810;6.418;2022-08-11T08:37:29;4.80;;;4.40;;
33900;SDS011;20193;49.810;6.418;2022-08-11T08:39:56;4.68;;;4.22;;
33900;SDS011;20193;49.810;6.418;2022-08-11T08:42:23;4.90;;;4.60;;
33900;SDS011;20193;49.810;6.418;2022-08-11T08:44:57;5.85;;;4.20;;
33900;SDS011;20193;49.810;6.418;2022-08-11T08:47:28;5.20;;;4.80;;
33900;SDS011;20193;49.810;6.418;2022-08-11T08:49:58;4.20;;;3.85;;
33900;SDS011;20193;49.810;6.418;2022-08-11T08:52:28;5.22;;;4.38;;
33900;SDS011;20193;49.810;6.418;2022-08-11T08:55:00;7.00;;;4.05;;
33900;SDS011;20193;49.810;6.418;2022-08-11T08:57:28;4.75;;;4.07;;
33900;SDS011;20193;49.810;6.418;2022-08-11T08:59:57;4.25;;;3.88;;
33900;SDS011;20193;49.810;6.418;2022-08-11T09:02:24;5.45;;;4.30;;
33900;SDS011;20193;49.810;6.418;2022-08-11T09:04:51;4.47;;;4.07;;
33900;SDS011;20193;49.810;6.418;2022-08-11T09:07:19;4.43;;;4.13;;
33900;SDS011;20193;49.810;6.418;2022-08-11T09:09:48;4.45;;;3.83;;
33900;SDS011;20193;49.810;6.418;2022-08-11T09:12:16;4.78;;;3.95;;
33900;SDS011;20193;49.810;6.418;2022-08-11T09:14:44;3.95;;;3.65;;
33900;SDS011;20193;49.810;6.418;2022-08-11T09:17:33;4.57;;;4.18;;
33900;SDS011;20193;49.810;6.418;2022-08-11T09:20:04;4.07;;;3.75;;
33900;SDS011;20193;49.810;6.418;2022-08-11T09:22:34;5.18;;;4.18;;
33900;SDS011;20193;49.810;6.418;2022-08-11T09:25:20;4.43;;;4.00;;
33900;SDS011;20193;49.810;6.418;2022-08-11T09:28:11;6.97;;;4.00;;
33900;SDS011;20193;49.810;6.418;2022-08-11T09:30:42;5.47;;;3.85;;
33900;SDS011;20193;49.810;6.418;2022-08-11T09:33:12;5.13;;;3.53;;
33900;SDS011;20193;49.810;6.418;2022-08-11T09:35:55;6.63;;;3.40;;
33900;SDS011;20193;49.810;6.418;2022-08-11T09:38:44;3.75;;;3.47;;
33900;SDS011;20193;49.810;6.418;2022-08-11T09:41:29;5.90;;;3.50;;
33900;SDS011;20193;49.810;6.418;2022-08-11T09:43:56;3.75;;;3.15;;
33900;SDS011;20193;49.810;6.418;2022-08-11T09:46:43;5.50;;;3.15;;
33900;SDS011;20193;49.810;6.418;2022-08-11T09:49:08;3.40;;;3.00;;
33900;SDS011;20193;49.810;6.418;2022-08-11T09:51:34;3.90;;;3.55;;
33900;SDS011;20193;49.810;6.418;2022-08-11T09:54:01;3.70;;;3.40;;
33900;SDS011;20193;49.810;6.418;2022-08-11T09:56:31;3.97;;;3.67;;
33900;SDS011;20193;49.810;6.418;2022-08-11T09:59:19;3.15;;;2.90;;
33900;SDS011;20193;49.810;6.418;2022-08-11T10:01:46;4.75;;;3.33;;
33900;SDS011;20193;49.810;6.418;2022-08-11T10:04:24;3.95;;;3.63;;
33900;SDS011;20193;49.810;6.418;2022-08-11T10:06:56;3.90;;;3.58;;
33900;SDS011;20193;49.810;6.418;2022-08-11T10:09:25;4.50;;;3.50;;
33900;SDS011;20193;49.810;6.418;2022-08-11T10:11:59;7.43;;;3.75;;
33900;SDS011;20193;49.810;6.418;2022-08-11T10:14:28;3.67;;;3.25;;
33900;SDS011;20193;49.810;6.418;2022-08-11T10:17:14;5.95;;;3.50;;
33900;SDS011;20193;49.810;6.418;2022-08-11T10:19:44;3.45;;;3.22;;
33900;SDS011;20193;49.810;6.418;2022-08-11T10:22:13;5.10;;;3.20;;
33900;SDS011;20193;49.810;6.418;2022-08-11T10:25:00;8.15;;;3.60;;
33900;SDS011;20193;49.810;6.418;2022-08-11T10:27:45;5.78;;;2.90;;
33900;SDS011;20193;49.810;6.418;2022-08-11T10:30:17;3.55;;;3.10;;
33900;SDS011;20193;49.810;6.418;2022-08-11T10:33:02;7.70;;;3.20;;
33900;SDS011;20193;49.810;6.418;2022-08-11T10:35:46;3.88;;;3.53;;
33900;SDS011;20193;49.810;6.418;2022-08-11T10:38:13;4.30;;;3.40;;
33900;SDS011;20193;49.810;6.418;2022-08-11T10:40:45;5.45;;;3.15;;
33900;SDS011;20193;49.810;6.418;2022-08-11T10:43:31;3.15;;;2.80;;
33900;SDS011;20193;49.810;6.418;2022-08-11T10:45:58;5.38;;;3.40;;
33900;SDS011;20193;49.810;6.418;2022-08-11T10:48:42;5.50;;;3.65;;
33900;SDS011;20193;49.810;6.418;2022-08-11T10:51:09;4.05;;;3.65;;
33900;SDS011;20193;49.810;6.418;2022-08-11T10:53:46;3.92;;;3.60;;
33900;SDS011;20193;49.810;6.418;2022-08-11T10:56:36;4.40;;;3.92;;
33900;SDS011;20193;49.810;6.418;2022-08-11T10:59:26;4.03;;;3.40;;
33900;SDS011;20193;49.810;6.418;2022-08-11T11:01:54;4.10;;;3.80;;
33900;SDS011;20193;49.810;6.418;2022-08-11T11:04:23;3.63;;;3.33;;
33900;SDS011;20193;49.810;6.418;2022-08-11T11:07:07;4.13;;;3.72;;
33900;SDS011;20193;49.810;6.418;2022-08-11T11:09:39;3.70;;;3.42;;
33900;SDS011;20193;49.810;6.418;2022-08-11T11:12:34;3.88;;;3.10;;
33900;SDS011;20193;49.810;6.418;2022-08-11T11:15:22;7.68;;;2.95;;
33900;SDS011;20193;49.810;6.418;2022-08-11T11:18:22;3.53;;;2.90;;
33900;SDS011;20193;49.810;6.418;2022-08-11T11:23:25;4.85;;;3.25;;
33900;SDS011;20193;49.810;6.418;2022-08-11T11:36:55;4.70;;;3.15;;
33900;SDS011;20193;49.810;6.418;2022-08-11T11:39:23;3.95;;;3.30;;
33900;SDS011;20193;49.810;6.418;2022-08-11T11:41:52;4.82;;;3.20;;
33900;SDS011;20193;49.810;6.418;2022-08-11T11:44:23;5.53;;;2.85;;
33900;SDS011;20193;49.810;6.418;2022-08-11T11:46:50;3.47;;;3.10;;
33900;SDS011;20193;49.810;6.418;2022-08-11T11:49:17;8.23;;;3.58;;
33900;SDS011;20193;49.810;6.418;2022-08-11T11:51:44;4.20;;;3.22;;
33900;SDS011;20193;49.810;6.418;2022-08-11T11:54:13;3.38;;;3.00;;
33900;SDS011;20193;49.810;6.418;2022-08-11T11:56:40;9.25;;;3.42;;
33900;SDS011;20193;49.810;6.418;2022-08-11T11:59:07;2.85;;;2.65;;
33900;SDS011;20193;49.810;6.418;2022-08-11T12:01:53;5.75;;;3.00;;
33900;SDS011;20193;49.810;6.418;2022-08-11T12:04:20;3.13;;;2.92;;
33900;SDS011;20193;49.810;6.418;2022-08-11T12:06:46;4.32;;;3.55;;
33900;SDS011;20193;49.810;6.418;2022-08-11T12:09:12;2.92;;;2.72;;
33900;SDS011;20193;49.810;6.418;2022-08-11T12:11:42;7.32;;;3.45;;
33900;SDS011;20193;49.810;6.418;2022-08-11T12:14:27;3.72;;;3.28;;
33900;SDS011;20193;49.810;6.418;2022-08-11T12:16:54;9.98;;;4.07;;
33900;SDS011;20193;49.810;6.418;2022-08-11T12:19:24;2.60;;;2.40;;
33900;SDS011;20193;49.810;6.418;2022-08-11T12:21:53;7.35;;;2.90;;
33900;SDS011;20193;49.810;6.418;2022-08-11T12:24:39;4.15;;;2.90;;
33900;SDS011;20193;49.810;6.418;2022-08-11T12:27:25;5.25;;;3.05;;
33900;SDS011;20193;49.810;6.418;2022-08-11T12:29:58;4.63;;;2.90;;
33900;SDS011;20193;49.810;6.418;2022-08-11T12:32:30;3.65;;;3.00;;
33900;SDS011;20193;49.810;6.418;2022-08-11T12:34:58;3.97;;;2.70;;
33900;SDS011;20193;49.810;6.418;2022-08-11T12:37:35;2.80;;;2.60;;
33900;SDS011;20193;49.810;6.418;2022-08-11T12:40:06;3.97;;;2.83;;
33900;SDS011;20193;49.810;6.418;2022-08-11T12:42:54;10.63;;;5.60;;
33900;SDS011;20193;49.810;6.418;2022-08-11T12:45:44;2.90;;;2.70;;
33900;SDS011;20193;49.810;6.418;2022-08-11T12:48:18;4.75;;;3.35;;
33900;SDS011;20193;49.810;6.418;2022-08-11T12:51:24;4.05;;;2.72;;
33900;SDS011;20193;49.810;6.418;2022-08-11T12:54:12;6.57;;;2.83;;
33900;SDS011;20193;49.810;6.418;2022-08-11T12:56:45;9.55;;;3.10;;
33900;SDS011;20193;49.810;6.418;2022-08-11T12:59:31;3.25;;;2.95;;
33900;SDS011;20193;49.810;6.418;2022-08-11T13:02:17;3.50;;;2.47;;
33900;SDS011;20193;49.810;6.418;2022-08-11T13:05:04;4.97;;;2.85;;
33900;SDS011;20193;49.810;6.418;2022-08-11T13:07:31;6.43;;;2.80;;
33900;SDS011;20193;49.810;6.418;2022-08-11T13:10:00;3.92;;;2.65;;
33900;SDS011;20193;49.810;6.418;2022-08-11T13:12:28;3.53;;;2.78;;
33900;SDS011;20193;49.810;6.418;2022-08-11T13:15:14;2.83;;;2.63;;
33900;SDS011;20193;49.810;6.418;2022-08-11T13:17:46;3.75;;;2.70;;
33900;SDS011;20193;49.810;6.418;2022-08-11T13:20:18;3.15;;;2.63;;
33900;SDS011;20193;49.810;6.418;2022-08-11T13:22:49;3.40;;;2.53;;
33900;SDS011;20193;49.810;6.418;2022-08-11T13:25:17;2.88;;;2.67;;
33900;SDS011;20193;49.810;6.418;2022-08-11T13:27:46;4.63;;;2.75;;
33900;SDS011;20193;49.810;6.418;2022-08-11T13:30:14;3.10;;;2.80;;
33900;SDS011;20193;49.810;6.418;2022-08-11T13:32:59;5.22;;;2.88;;
33900;SDS011;20193;49.810;6.418;2022-08-11T13:35:29;3.10;;;2.90;;
33900;SDS011;20193;49.810;6.418;2022-08-11T13:37:57;3.17;;;2.88;;
33900;SDS011;20193;49.810;6.418;2022-08-11T13:40:25;2.75;;;2.55;;
33900;SDS011;20193;49.810;6.418;2022-08-11T13:42:52;4.93;;;2.85;;
33900;SDS011;20193;49.810;6.418;2022-08-11T13:45:20;3.30;;;2.63;;
33900;SDS011;20193;49.810;6.418;2022-08-11T13:47:47;6.47;;;3.15;;
33900;SDS011;20193;49.810;6.418;2022-08-11T13:50:15;5.93;;;2.60;;
33900;SDS011;20193;49.810;6.418;2022-08-11T13:52:42;4.43;;;2.83;;
33900;SDS011;20193;49.810;6.418;2022-08-11T13:55:10;3.55;;;2.55;;
33900;SDS011;20193;49.810;6.418;2022-08-11T13:57:50;4.63;;;2.88;;
33900;SDS011;20193;49.810;6.418;2022-08-11T14:00:18;4.53;;;3.00;;
33900;SDS011;20193;49.810;6.418;2022-08-11T14:02:44;3.10;;;2.90;;
33900;SDS011;20193;49.810;6.418;2022-08-11T14:05:29;3.13;;;2.92;;
33900;SDS011;20193;49.810;6.418;2022-08-11T14:08:02;4.65;;;2.92;;
33900;SDS011;20193;49.810;6.418;2022-08-11T14:10:33;5.47;;;3.20;;
33900;SDS011;20193;49.810;6.418;2022-08-11T14:13:09;4.90;;;2.78;;
33900;SDS011;20193;49.810;6.418;2022-08-11T14:16:00;6.80;;;3.10;;
33900;SDS011;20193;49.810;6.418;2022-08-11T14:18:31;3.63;;;2.70;;
33900;SDS011;20193;49.810;6.418;2022-08-11T14:20:58;3.08;;;2.83;;
33900;SDS011;20193;49.810;6.418;2022-08-11T14:23:45;2.78;;;2.58;;
33900;SDS011;20193;49.810;6.418;2022-08-11T14:26:15;5.13;;;3.08;;
33900;SDS011;20193;49.810;6.418;2022-08-11T14:28:52;3.08;;;2.83;;
33900;SDS011;20193;49.810;6.418;2022-08-11T14:31:22;4.20;;;2.88;;
33900;SDS011;20193;49.810;6.418;2022-08-11T14:33:49;5.10;;;2.60;;
33900;SDS011;20193;49.810;6.418;2022-08-11T14:36:24;3.65;;;2.35;;
33900;SDS011;20193;49.810;6.418;2022-08-11T14:38:52;2.95;;;2.75;;
33900;SDS011;20193;49.810;6.418;2022-08-11T14:41:19;3.50;;;2.55;;
33900;SDS011;20193;49.810;6.418;2022-08-11T14:44:05;3.97;;;2.70;;
33900;SDS011;20193;49.810;6.418;2022-08-11T14:46:58;3.00;;;2.47;;
33900;SDS011;20193;49.810;6.418;2022-08-11T14:49:28;3.45;;;3.10;;
33900;SDS011;20193;49.810;6.418;2022-08-11T14:51:54;3.70;;;2.90;;
33900;SDS011;20193;49.810;6.418;2022-08-11T14:54:27;4.72;;;2.60;;
33900;SDS011;20193;49.810;6.418;2022-08-11T14:57:13;2.90;;;2.70;;
33900;SDS011;20193;49.810;6.418;2022-08-11T14:59:41;6.22;;;3.00;;
33900;SDS011;20193;49.810;6.418;2022-08-11T15:02:07;5.43;;;2.90;;
33900;SDS011;20193;49.810;6.418;2022-08-11T15:04:53;3.30;;;3.10;;
33900;SDS011;20193;49.810;6.418;2022-08-11T15:07:20;2.88;;;2.67;;
33900;SDS011;20193;49.810;6.418;2022-08-11T15:09:54;4.63;;;2.97;;
33900;SDS011;20193;49.810;6.418;2022-08-11T15:12:22;3.17;;;2.97;;
33900;SDS011;20193;49.810;6.418;2022-08-11T15:14:48;3.00;;;2.80;;
33900;SDS011;20193;49.810;6.418;2022-08-11T15:17:33;5.63;;;2.90;;
33900;SDS011;20193;49.810;6.418;2022-08-11T15:20:02;5.60;;;3.17;;
33900;SDS011;20193;49.810;6.418;2022-08-11T15:22:48;3.35;;;3.05;;
33900;SDS011;20193;49.810;6.418;2022-08-11T15:25:33;4.47;;;3.30;;
33900;SDS011;20193;49.810;6.418;2022-08-11T15:28:00;5.47;;;3.05;;
33900;SDS011;20193;49.810;6.418;2022-08-11T15:30:59;6.25;;;3.28;;
33900;SDS011;20193;49.810;6.418;2022-08-11T15:33:45;3.00;;;2.70;;
33900;SDS011;20193;49.810;6.418;2022-08-11T15:36:32;3.22;;;2.90;;
33900;SDS011;20193;49.810;6.418;2022-08-11T15:41:46;4.35;;;3.30;;
33900;SDS011;20193;49.810;6.418;2022-08-11T15:44:46;4.07;;;3.15;;
33900;SDS011;20193;49.810;6.418;2022-08-11T15:47:39;3.33;;;2.92;;
33900;SDS011;20193;49.810;6.418;2022-08-11T15:50:12;4.93;;;3.10;;
33900;SDS011;20193;49.810;6.418;2022-08-11T15:52:52;5.00;;;3.10;;
33900;SDS011;20193;49.810;6.418;2022-08-11T15:55:23;5.43;;;3.10;;
33900;SDS011;20193;49.810;6.418;2022-08-11T15:57:51;6.13;;;3.10;;
33900;SDS011;20193;49.810;6.418;2022-08-11T16:00:38;4.47;;;3.20;;
33900;SDS011;20193;49.810;6.418;2022-08-11T16:03:24;3.17;;;2.75;;
33900;SDS011;20193;49.810;6.418;2022-08-11T16:06:11;4.57;;;3.08;;
33900;SDS011;20193;49.810;6.418;2022-08-11T16:08:39;5.75;;;2.70;;
33900;SDS011;20193;49.810;6.418;2022-08-11T16:11:07;4.45;;;2.70;;
33900;SDS011;20193;49.810;6.418;2022-08-11T16:13:34;2.92;;;2.72;;
33900;SDS011;20193;49.810;6.418;2022-08-11T16:16:05;6.22;;;3.20;;
33900;SDS011;20193;49.810;6.418;2022-08-11T16:18:52;5.85;;;3.30;;
33900;SDS011;20193;49.810;6.418;2022-08-11T16:21:31;4.40;;;3.22;;
33900;SDS011;20193;49.810;6.418;2022-08-11T16:23:58;3.45;;;3.05;;
33900;SDS011;20193;49.810;6.418;2022-08-11T16:26:30;3.00;;;2.80;;
33900;SDS011;20193;49.810;6.418;2022-08-11T16:28:57;3.20;;;2.90;;
33900;SDS011;20193;49.810;6.418;2022-08-11T16:31:25;3.58;;;2.92;;
33900;SDS011;20193;49.810;6.418;2022-08-11T16:33:52;3.40;;;3.10;;
33900;SDS011;20193;49.810;6.418;2022-08-11T16:36:22;4.55;;;3.30;;
33900;SDS011;20193;49.810;6.418;2022-08-11T16:39:08;4.18;;;3.30;;
33900;SDS011;20193;49.810;6.418;2022-08-11T16:41:36;5.88;;;3.47;;
33900;SDS011;20193;49.810;6.418;2022-08-11T16:44:23;4.65;;;3.33;;
33900;SDS011;20193;49.810;6.418;2022-08-11T16:47:09;3.80;;;3.30;;
33900;SDS011;20193;49.810;6.418;2022-08-11T16:49:44;3.58;;;3.22;;
33900;SDS011;20193;49.810;6.418;2022-08-11T16:52:15;3.30;;;3.10;;
33900;SDS011;20193;49.810;6.418;2022-08-11T16:54:42;6.25;;;3.30;;
33900;SDS011;20193;49.810;6.418;2022-08-11T16:57:09;3.03;;;2.60;;
33900;SDS011;20193;49.810;6.418;2022-08-11T16:59:57;2.97;;;2.78;;
33900;SDS011;20193;49.810;6.418;2022-08-11T17:02:31;3.97;;;3.15;;
33900;SDS011;20193;49.810;6.418;2022-08-11T17:05:18;5.70;;;3.53;;
33900;SDS011;20193;49.810;6.418;2022-08-11T17:08:15;3.53;;;3.17;;
33900;SDS011;20193;49.810;6.418;2022-08-11T17:11:03;3.40;;;3.20;;
33900;SDS011;20193;49.810;6.418;2022-08-11T17:14:00;5.22;;;3.45;;
33900;SDS011;20193;49.810;6.418;2022-08-11T17:16:34;6.65;;;3.65;;
33900;SDS011;20193;49.810;6.418;2022-08-11T17:19:09;4.85;;;3.40;;
33900;SDS011;20193;49.810;6.418;2022-08-11T17:21:42;3.53;;;3.20;;
33900;SDS011;20193;49.810;6.418;2022-08-11T17:24:30;4.82;;;3.08;;
33900;SDS011;20193;49.810;6.418;2022-08-11T17:26:59;6.30;;;3.67;;
33900;SDS011;20193;49.810;6.418;2022-08-11T17:32:04;4.15;;;2.92;;
33900;SDS011;20193;49.810;6.418;2022-08-11T17:34:54;3.85;;;3.55;;
33900;SDS011;20193;49.810;6.418;2022-08-11T17:37:41;4.47;;;3.88;;
33900;SDS011;20193;49.810;6.418;2022-08-11T17:40:09;3.80;;;3.40;;
33900;SDS011;20193;49.810;6.418;2022-08-11T17:42:45;7.20;;;2.90;;
33900;SDS011;20193;49.810;6.418;2022-08-11T17:45:30;3.75;;;3.00;;
33900;SDS011;20193;49.810;6.418;2022-08-11T17:48:15;4.85;;;3.30;;
33900;SDS011;20193;49.810;6.418;2022-08-11T17:51:11;3.80;;;3.50;;
33900;SDS011;20193;49.810;6.418;2022-08-11T17:53:57;4.65;;;3.10;;
33900;SDS011;20193;49.810;6.418;2022-08-11T17:56:44;5.03;;;3.50;;
33900;SDS011;20193;49.810;6.418;2022-08-11T17:59:31;4.38;;;3.67;;
33900;SDS011;20193;49.810;6.418;2022-08-11T18:02:24;3.60;;;3.40;;
33900;SDS011;20193;49.810;6.418;2022-08-11T18:05:16;5.25;;;3.40;;
33900;SDS011;20193;49.810;6.418;2022-08-11T18:07:44;3.10;;;2.90;;
33900;SDS011;20193;49.810;6.418;2022-08-11T18:10:30;3.53;;;3.30;;
33900;SDS011;20193;49.810;6.418;2022-08-11T18:13:17;5.60;;;3.33;;
33900;SDS011;20193;49.810;6.418;2022-08-11T18:16:04;4.93;;;3.45;;
33900;SDS011;20193;49.810;6.418;2022-08-11T18:18:49;3.50;;;3.20;;
33900;SDS011;20193;49.810;6.418;2022-08-11T18:21:34;3.85;;;3.35;;
33900;SDS011;20193;49.810;6.418;2022-08-11T18:24:20;5.40;;;3.40;;
33900;SDS011;20193;49.810;6.418;2022-08-11T18:27:07;5.38;;;3.40;;
33900;SDS011;20193;49.810;6.418;2022-08-11T18:29:54;4.72;;;3.80;;
33900;SDS011;20193;49.810;6.418;2022-08-11T18:32:43;4.70;;;3.33;;
33900;SDS011;20193;49.810;6.418;2022-08-11T18:35:31;3.40;;;3.20;;
33900;SDS011;20193;49.810;6.418;2022-08-11T18:38:17;4.80;;;3.15;;
33900;SDS011;20193;49.810;6.418;2022-08-11T18:41:06;6.00;;;3.60;;
33900;SDS011;20193;49.810;6.418;2022-08-11T18:43:52;5.05;;;3.85;;
33900;SDS011;20193;49.810;6.418;2022-08-11T18:46:40;3.97;;;3.42;;
33900;SDS011;20193;49.810;6.418;2022-08-11T18:49:28;5.50;;;3.50;;
33900;SDS011;20193;49.810;6.418;2022-08-11T18:52:17;3.95;;;3.50;;
33900;SDS011;20193;49.810;6.418;2022-08-11T18:55:04;3.85;;;3.50;;
33900;SDS011;20193;49.810;6.418;2022-08-11T18:57:53;5.63;;;3.63;;
33900;SDS011;20193;49.810;6.418;2022-08-11T19:00:39;5.20;;;3.45;;
33900;SDS011;20193;49.810;6.418;2022-08-11T19:03:26;5.57;;;4.00;;
33900;SDS011;20193;49.810;6.418;2022-08-11T19:06:11;4.55;;;4.15;;
33900;SDS011;20193;49.810;6.418;2022-08-11T19:08:58;4.60;;;3.90;;
33900;SDS011;20193;49.810;6.418;2022-08-11T19:11:45;4.03;;;3.60;;
33900;SDS011;20193;49.810;6.418;2022-08-11T19:14:30;3.78;;;3.53;;
33900;SDS011;20193;49.810;6.418;2022-08-11T19:17:17;3.20;;;3.00;;
33900;SDS011;20193;49.810;6.418;2022-08-11T19:20:03;4.10;;;3.10;;
33900;SDS011;20193;49.810;6.418;2022-08-11T19:22:51;4.57;;;3.05;;
33900;SDS011;20193;49.810;6.418;2022-08-11T19:25:37;3.47;;;3.22;;
33900;SDS011;20193;49.810;6.418;2022-08-11T19:28:22;3.58;;;2.80;;
33900;SDS011;20193;49.810;6.418;2022-08-11T19:31:08;3.25;;;3.05;;
33900;SDS011;20193;49.810;6.418;2022-08-11T19:33:53;3.20;;;2.90;;
33900;SDS011;20193;49.810;6.418;2022-08-11T19:36:38;3.35;;;3.05;;
33900;SDS011;20193;49.810;6.418;2022-08-11T19:39:25;5.38;;;3.47;;
33900;SDS011;20193;49.810;6.418;2022-08-11T19:42:11;3.33;;;3.13;;
33900;SDS011;20193;49.810;6.418;2022-08-11T19:44:58;5.53;;;4.07;;
33900;SDS011;20193;49.810;6.418;2022-08-11T19:47:45;4.65;;;4.22;;
33900;SDS011;20193;49.810;6.418;2022-08-11T19:50:31;5.45;;;3.55;;
33900;SDS011;20193;49.810;6.418;2022-08-11T19:53:16;4.28;;;3.97;;
33900;SDS011;20193;49.810;6.418;2022-08-11T19:56:02;3.97;;;3.67;;
33900;SDS011;20193;49.810;6.418;2022-08-11T19:58:49;5.20;;;4.40;;
33900;SDS011;20193;49.810;6.418;2022-08-11T20:01:34;3.70;;;3.40;;
33900;SDS011;20193;49.810;6.418;2022-08-11T20:04:19;3.50;;;3.25;;
33900;SDS011;20193;49.810;6.418;2022-08-11T20:07:04;4.72;;;3.72;;
33900;SDS011;20193;49.810;6.418;2022-08-11T20:09:49;3.25;;;2.95;;
33900;SDS011;20193;49.810;6.418;2022-08-11T20:12:35;3.22;;;3.03;;
33900;SDS011;20193;49.810;6.418;2022-08-11T20:15:21;3.78;;;3.20;;
33900;SDS011;20193;49.810;6.418;2022-08-11T20:18:08;3.60;;;3.28;;
33900;SDS011;20193;49.810;6.418;2022-08-11T20:20:55;4.40;;;3.40;;
33900;SDS011;20193;49.810;6.418;2022-08-11T20:23:42;3.30;;;3.10;;
33900;SDS011;20193;49.810;6.418;2022-08-11T20:26:29;4.75;;;3.40;;
33900;SDS011;20193;49.810;6.418;2022-08-11T20:29:15;4.18;;;3.70;;
33900;SDS011;20193;49.810;6.418;2022-08-11T20:32:10;3.38;;;3.08;;
33900;SDS011;20193;49.810;6.418;2022-08-11T20:34:55;4.00;;;3.70;;
33900;SDS011;20193;49.810;6.418;2022-08-11T20:37:41;3.78;;;3.35;;
33900;SDS011;20193;49.810;6.418;2022-08-11T20:40:27;3.90;;;3.47;;
33900;SDS011;20193;49.810;6.418;2022-08-11T20:43:13;3.50;;;3.10;;
33900;SDS011;20193;49.810;6.418;2022-08-11T20:46:01;3.25;;;3.00;;
33900;SDS011;20193;49.810;6.418;2022-08-11T20:48:48;5.07;;;3.35;;
33900;SDS011;20193;49.810;6.418;2022-08-11T20:51:35;4.88;;;3.50;;
33900;SDS011;20193;49.810;6.418;2022-08-11T20:54:22;5.68;;;3.42;;
33900;SDS011;20193;49.810;6.418;2022-08-11T20:57:11;3.83;;;3.53;;
33900;SDS011;20193;49.810;6.418;2022-08-11T20:59:58;3.22;;;2.92;;
33900;SDS011;20193;49.810;6.418;2022-08-11T21:02:43;4.38;;;3.70;;
33900;SDS011;20193;49.810;6.418;2022-08-11T21:05:30;5.22;;;3.58;;
33900;SDS011;20193;49.810;6.418;2022-08-11T21:08:19;4.10;;;3.67;;
33900;SDS011;20193;49.810;6.418;2022-08-11T21:11:05;5.85;;;4.07;;
33900;SDS011;20193;49.810;6.418;2022-08-11T21:13:51;3.88;;;3.22;;
33900;SDS011;20193;49.810;6.418;2022-08-11T21:16:37;3.95;;;3.65;;
33900;SDS011;20193;49.810;6.418;2022-08-11T21:19:24;6.53;;;3.60;;
33900;SDS011;20193;49.810;6.418;2022-08-11T21:22:14;4.70;;;3.83;;
33900;SDS011;20193;49.810;6.418;2022-08-11T21:25:02;4.78;;;3.80;;
33900;SDS011;20193;49.810;6.418;2022-08-11T21:27:49;3.88;;;3.60;;
33900;SDS011;20193;49.810;6.418;2022-08-11T21:30:35;4.18;;;3.58;;
33900;SDS011;20193;49.810;6.418;2022-08-11T21:33:20;4.18;;;3.78;;
33900;SDS011;20193;49.810;6.418;2022-08-11T21:36:06;5.63;;;3.65;;
33900;SDS011;20193;49.810;6.418;2022-08-11T21:38:51;5.18;;;4.22;;
33900;SDS011;20193;49.810;6.418;2022-08-11T21:41:36;3.53;;;3.22;;
33900;SDS011;20193;49.810;6.418;2022-08-11T21:44:22;4.40;;;3.47;;
33900;SDS011;20193;49.810;6.418;2022-08-11T21:47:08;3.90;;;3.60;;
33900;SDS011;20193;49.810;6.418;2022-08-11T21:49:54;5.57;;;4.07;;
33900;SDS011;20193;49.810;6.418;2022-08-11T21:52:38;4.35;;;3.75;;
33900;SDS011;20193;49.810;6.418;2022-08-11T21:55:23;4.05;;;3.75;;
33900;SDS011;20193;49.810;6.418;2022-08-11T21:58:09;4.15;;;3.75;;
33900;SDS011;20193;49.810;6.418;2022-08-11T22:00:54;4.43;;;4.10;;
33900;SDS011;20193;49.810;6.418;2022-08-11T22:03:39;4.88;;;4.05;;
33900;SDS011;20193;49.810;6.418;2022-08-11T22:06:23;3.67;;;3.38;;
33900;SDS011;20193;49.810;6.418;2022-08-11T22:09:08;3.95;;;3.60;;
33900;SDS011;20193;49.810;6.418;2022-08-11T22:11:52;4.43;;;4.03;;
33900;SDS011;20193;49.810;6.418;2022-08-11T22:14:37;4.10;;;3.80;;
33900;SDS011;20193;49.810;6.418;2022-08-11T22:17:21;6.13;;;3.97;;
33900;SDS011;20193;49.810;6.418;2022-08-11T22:20:25;4.80;;;4.15;;
33900;SDS011;20193;49.810;6.418;2022-08-11T22:23:10;4.15;;;3.78;;
33900;SDS011;20193;49.810;6.418;2022-08-11T22:25:59;5.57;;;4.13;;
33900;SDS011;20193;49.810;6.418;2022-08-11T22:28:44;4.90;;;4.22;;
33900;SDS011;20193;49.810;6.418;2022-08-11T22:31:29;4.22;;;3.88;;
33900;SDS011;20193;49.810;6.418;2022-08-11T22:34:15;4.90;;;4.00;;
33900;SDS011;20193;49.810;6.418;2022-08-11T22:37:01;4.82;;;4.32;;
33900;SDS011;20193;49.810;6.418;2022-08-11T22:39:46;4.78;;;4.38;;
33900;SDS011;20193;49.810;6.418;2022-08-11T22:42:32;4.47;;;4.05;;
33900;SDS011;20193;49.810;6.418;2022-08-11T22:45:17;4.68;;;4.38;;
33900;SDS011;20193;49.810;6.418;2022-08-11T22:48:05;4.35;;;3.95;;
33900;SDS011;20193;49.810;6.418;2022-08-11T22:50:51;3.95;;;3.65;;
33900;SDS011;20193;49.810;6.418;2022-08-11T22:53:37;4.18;;;3.88;;
33900;SDS011;20193;49.810;6.418;2022-08-11T22:56:22;4.35;;;3.88;;
33900;SDS011;20193;49.810;6.418;2022-08-11T22:59:07;4.40;;;4.10;;
33900;SDS011;20193;49.810;6.418;2022-08-11T23:01:52;4.78;;;4.32;;
33900;SDS011;20193;49.810;6.418;2022-08-11T23:04:37;4.55;;;3.75;;
33900;SDS011;20193;49.810;6.418;2022-08-11T23:07:23;4.60;;;4.22;;
33900;SDS011;20193;49.810;6.418;2022-08-11T23:10:08;4.25;;;3.90;;
33900;SDS011;20193;49.810;6.418;2022-08-11T23:12:52;4.47;;;4.05;;
33900;SDS011;20193;49.810;6.418;2022-08-11T23:15:38;4.40;;;4.10;;
33900;SDS011;20193;49.810;6.418;2022-08-11T23:18:23;4.07;;;3.78;;
33900;SDS011;20193;49.810;6.418;2022-08-11T23:21:09;4.68;;;4.00;;
33900;SDS011;20193;49.810;6.418;2022-08-11T23:23:56;4.18;;;3.88;;
33900;SDS011;20193;49.810;6.418;2022-08-11T23:26:42;4.35;;;3.95;;
33900;SDS011;20193;49.810;6.418;2022-08-11T23:29:27;4.20;;;3.90;;
33900;SDS011;20193;49.810;6.418;2022-08-11T23:32:15;4.38;;;3.97;;
33900;SDS011;20193;49.810;6.418;2022-08-11T23:35:00;4.68;;;3.95;;
33900;SDS011;20193;49.810;6.418;2022-08-11T23:37:45;4.80;;;4.05;;
33900;SDS011;20193;49.810;6.418;2022-08-11T23:40:30;4.20;;;3.90;;
33900;SDS011;20193;49.810;6.418;2022-08-11T23:43:18;5.05;;;4.63;;